Vandalia, Ohio
Current Conditions -  °F | °C
As of 9:44 AM on Friday 28 Nov 2014 (Local Time) from KDAY Reporting Station
Broken Clouds Broken Clouds  
Wind Chill: 21°   Ceiling: 9500
Heat Index: 26°   Visibility: 10mi
Dew Point: 16°   Wind: 5mph
Humidity: 66%   Direction: 170°S
Pressure: 30.35"   Gusts: NA
Location:  39.89°N, 84.19°W
Report Text: KDAY 281444Z 17004KT 10SM SCT023 BKN095 BKN120 M03/M09 A3035 RMK AO2 T10331089
Loading
Personal Weather Stations






























Interactive Weather Map New forecast layout! Learn more

10-Day Weather Forecast

Advertisements
Track Severe Weather on mobile